Time;durP1;ratioP1;P1;durP2;ratioP2;P2;SDS_P1;SDS_P2;PMS_P1;PMS_P2;Temp;Humidity;BMP_temperature;BMP_pressure;BME280_temperature;BME280_humidity;BME280_pressure;Samples;Min_cycle;Max_cycle;Signal;HPM_P1;HPM_P2
2022/06/05 00:01:18;;;;;;;65.83;50.37;;;;;;;;;;5050564;28;20202;-44
2022/06/05 00:04:06;;;;;;;66.23;52.53;;;;;;;;;;5047199;28;20281;-44
2022/06/05 00:06:32;;;;;;;68.97;54.97;;;;;;;;;;5041386;28;20738;-43
2022/06/05 00:09:04;;;;;;;67.13;51.53;;;;;;;;;;5043963;28;20177;-44
2022/06/05 00:11:44;;;;;;;79.00;60.70;;;;;;;;;;5048436;28;20186;-43
2022/06/05 00:14:10;;;;;;;60.93;49.83;;;;;;;;;;5045725;28;20791;-44
2022/06/05 00:16:36;;;;;;;71.03;55.73;;;;;;;;;;5043300;28;20600;-43
2022/06/05 00:19:03;;;;;;;67.53;56.67;;;;;;;;;;5047575;28;20666;-44
2022/06/05 00:21:29;;;;;;;67.23;55.63;;;;;;;;;;5049528;28;20195;-41
2022/06/05 00:23:55;;;;;;;68.93;52.97;;;;;;;;;;5042956;28;20635;-43
2022/06/05 00:26:40;;;;;;;63.20;51.10;;;;;;;;;;5044433;28;20171;-43
2022/06/05 00:29:12;;;;;;;69.67;55.53;;;;;;;;;;5046638;28;20180;-43
2022/06/05 00:31:43;;;;;;;82.40;62.67;;;;;;;;;;5045611;28;20187;-44
2022/06/05 00:34:09;;;;;;;82.47;60.63;;;;;;;;;;5042063;28;20813;-43
2022/06/05 00:37:10;;;;;;;86.57;63.83;;;;;;;;;;5044589;28;20201;-43
2022/06/05 00:39:55;;;;;;;74.90;58.20;;;;;;;;;;4990300;28;20306;-43
2022/06/05 00:42:23;;;;;;;79.07;58.47;;;;;;;;;;5037295;28;20223;-44
2022/06/05 00:44:49;;;;;;;80.47;60.20;;;;;;;;;;5049545;28;20690;-43
2022/06/05 00:47:16;;;;;;;86.37;63.87;;;;;;;;;;5042558;28;20719;-43
2022/06/05 00:49:46;;;;;;;87.73;64.97;;;;;;;;;;5045440;28;20574;-43
2022/06/05 00:52:13;;;;;;;87.73;63.53;;;;;;;;;;5049594;28;20175;-44
2022/06/05 00:54:39;;;;;;;84.00;63.70;;;;;;;;;;5044966;28;20174;-43
2022/06/05 00:57:07;;;;;;;100.77;72.30;;;;;;;;;;5043253;28;20796;-44
2022/06/05 00:59:33;;;;;;;114.30;75.23;;;;;;;;;;5047810;28;20183;-44
2022/06/05 01:01:59;;;;;;;94.90;68.90;;;;;;;;;;5047664;28;20210;-44
2022/06/05 01:04:26;;;;;;;96.60;70.03;;;;;;;;;;5045402;28;21491;-44
2022/06/05 01:06:52;;;;;;;104.87;77.60;;;;;;;;;;5050898;28;20425;-43
2022/06/05 01:09:18;;;;;;;96.33;70.03;;;;;;;;;;5041420;28;20946;-44
2022/06/05 01:11:47;;;;;;;99.63;69.10;;;;;;;;;;5040396;28;20271;-43
2022/06/05 01:14:26;;;;;;;106.80;76.53;;;;;;;;;;5047463;28;20627;-44
2022/06/05 01:16:59;;;;;;;91.73;67.63;;;;;;;;;;5044657;28;21130;-43
2022/06/05 01:19:43;;;;;;;91.77;65.73;;;;;;;;;;5045141;28;20673;-44
2022/06/05 01:22:28;;;;;;;85.23;63.70;;;;;;;;;;5045858;28;20679;-43
2022/06/05 01:25:16;;;;;;;86.27;66.27;;;;;;;;;;5042974;28;20209;-43
2022/06/05 01:27:43;;;;;;;92.80;67.23;;;;;;;;;;5028196;28;20191;-43
2022/06/05 01:30:12;;;;;;;90.93;65.57;;;;;;;;;;5043224;28;20186;-44
2022/06/05 01:32:54;;;;;;;92.37;66.80;;;;;;;;;;5039832;28;20174;-43
2022/06/05 01:35:39;;;;;;;101.90;71.57;;;;;;;;;;5049339;28;20281;-44
2022/06/05 01:38:08;;;;;;;112.70;77.80;;;;;;;;;;5046038;28;20504;-43
2022/06/05 01:40:40;;;;;;;101.73;74.13;;;;;;;;;;5043081;28;20180;-43
2022/06/05 01:43:11;;;;;;;99.70;70.87;;;;;;;;;;5045835;28;20168;-44
2022/06/05 01:45:39;;;;;;;96.37;69.67;;;;;;;;;;5044567;28;20503;-44
2022/06/05 01:48:07;;;;;;;89.47;66.77;;;;;;;;;;5044061;28;20175;-44
2022/06/05 01:50:46;;;;;;;110.83;77.60;;;;;;;;;;5040919;28;20274;-44
2022/06/05 01:53:19;;;;;;;98.87;72.17;;;;;;;;;;5043467;28;20676;-44
2022/06/05 01:55:52;;;;;;;88.30;64.97;;;;;;;;;;5047277;28;20726;-43
2022/06/05 01:58:20;;;;;;;100.40;74.50;;;;;;;;;;5046179;28;20183;-43
2022/06/05 02:00:49;;;;;;;99.70;74.23;;;;;;;;;;5044319;28;20210;-43
2022/06/05 02:03:28;;;;;;;104.80;76.63;;;;;;;;;;5045256;28;20189;-44
2022/06/05 02:05:56;;;;;;;108.87;75.87;;;;;;;;;;5047245;28;21068;-44
2022/06/05 02:08:29;;;;;;;102.93;74.60;;;;;;;;;;5042619;28;20184;-44
2022/06/05 02:11:04;;;;;;;113.37;77.00;;;;;;;;;;5045367;28;20183;-43
2022/06/05 02:13:30;;;;;;;104.30;75.03;;;;;;;;;;5045108;28;20249;-43
2022/06/05 02:15:56;;;;;;;108.43;77.87;;;;;;;;;;5043477;28;20187;-44
2022/06/05 02:18:23;;;;;;;118.60;81.73;;;;;;;;;;5044176;28;20179;-43
2022/06/05 02:20:50;;;;;;;103.13;74.60;;;;;;;;;;5046535;28;20338;-44
2022/06/05 02:23:21;;;;;;;98.00;71.27;;;;;;;;;;5040701;28;20829;-43
2022/06/05 02:25:47;;;;;;;90.40;66.37;;;;;;;;;;5045700;28;20176;-43
2022/06/05 02:28:16;;;;;;;103.67;71.20;;;;;;;;;;5048318;28;20190;-44
2022/06/05 02:31:00;;;;;;;103.30;72.77;;;;;;;;;;5043196;28;20167;-43
2022/06/05 02:33:41;;;;;;;96.60;68.23;;;;;;;;;;5046932;28;20178;-44
2022/06/05 02:36:13;;;;;;;96.50;68.73;;;;;;;;;;5046959;28;20641;-44
2022/06/05 02:38:56;;;;;;;118.13;77.20;;;;;;;;;;5042805;28;20171;-44
2022/06/05 02:41:28;;;;;;;105.60;77.60;;;;;;;;;;5044587;28;20210;-44
2022/06/05 02:44:29;;;;;;;106.13;78.00;;;;;;;;;;5047381;28;20849;-43
2022/06/05 02:47:14;;;;;;;108.87;73.50;;;;;;;;;;5043998;28;20620;-43
2022/06/05 02:49:46;;;;;;;101.03;72.67;;;;;;;;;;5045004;28;20256;-43
2022/06/05 02:52:12;;;;;;;115.17;77.37;;;;;;;;;;5047792;28;20179;-43
2022/06/05 02:54:40;;;;;;;124.47;85.23;;;;;;;;;;5042212;28;20734;-44
2022/06/05 02:57:06;;;;;;;122.10;82.33;;;;;;;;;;5044992;28;20182;-43
2022/06/05 02:59:32;;;;;;;111.80;77.63;;;;;;;;;;5049803;28;20333;-43
2022/06/05 03:04:43;;;;;;;131.63;88.17;;;;;;;;;;5048651;28;20185;-44
2022/06/05 03:07:09;;;;;;;110.30;74.97;;;;;;;;;;5050760;28;20707;-44
2022/06/05 03:09:36;;;;;;;99.10;68.50;;;;;;;;;;5045297;28;20183;-43
2022/06/05 03:12:02;;;;;;;98.83;69.37;;;;;;;;;;5048596;28;20239;-44
2022/06/05 03:14:28;;;;;;;114.40;77.03;;;;;;;;;;5045195;28;20191;-44
2022/06/05 03:16:54;;;;;;;117.47;79.07;;;;;;;;;;5043785;28;20587;-44
2022/06/05 03:19:20;;;;;;;115.03;76.30;;;;;;;;;;5048688;28;20486;-43
2022/06/05 03:21:46;;;;;;;106.60;70.33;;;;;;;;;;5049281;28;20211;-44
2022/06/05 03:24:14;;;;;;;94.93;67.23;;;;;;;;;;5053959;28;20973;-44
2022/06/05 03:26:40;;;;;;;98.73;67.97;;;;;;;;;;5049881;28;20182;-44
2022/06/05 03:29:07;;;;;;;91.30;63.87;;;;;;;;;;5044398;28;20175;-43
2022/06/05 03:31:34;;;;;;;92.13;64.47;;;;;;;;;;5048576;28;20209;-42
2022/06/05 03:34:00;;;;;;;92.30;63.67;;;;;;;;;;5045597;28;20175;-43
2022/06/05 03:36:26;;;;;;;95.97;63.13;;;;;;;;;;5046840;28;20217;-43
2022/06/05 03:38:52;;;;;;;89.23;61.57;;;;;;;;;;5043992;28;20580;-43
2022/06/05 03:41:19;;;;;;;90.77;61.77;;;;;;;;;;5050257;28;20325;-44
2022/06/05 03:43:46;;;;;;;85.57;60.77;;;;;;;;;;5043240;28;20252;-44
2022/06/05 03:46:13;;;;;;;77.87;56.63;;;;;;;;;;5043570;28;20908;-43
2022/06/05 03:48:40;;;;;;;84.07;58.03;;;;;;;;;;5047212;28;20176;-43
2022/06/05 03:51:17;;;;;;;85.30;60.40;;;;;;;;;;5046209;28;20904;-43
2022/06/05 03:53:43;;;;;;;80.47;55.70;;;;;;;;;;5050295;28;20271;-44
2022/06/05 03:56:10;;;;;;;88.77;61.30;;;;;;;;;;5043706;28;20388;-43
2022/06/05 03:58:37;;;;;;;94.60;61.10;;;;;;;;;;5048818;28;21351;-43
2022/06/05 04:01:03;;;;;;;76.63;55.07;;;;;;;;;;5047852;28;20749;-44
2022/06/05 04:03:29;;;;;;;77.73;54.37;;;;;;;;;;5043595;28;20191;-43
2022/06/05 04:05:55;;;;;;;83.77;55.83;;;;;;;;;;5048473;28;20334;-43
2022/06/05 04:08:21;;;;;;;86.00;58.87;;;;;;;;;;5042090;28;20179;-43
2022/06/05 04:10:47;;;;;;;82.20;58.20;;;;;;;;;;5045870;28;20186;-42
2022/06/05 04:13:13;;;;;;;87.80;57.93;;;;;;;;;;5046126;28;20195;-43
2022/06/05 04:15:40;;;;;;;87.80;58.83;;;;;;;;;;5045414;28;20614;-42
2022/06/05 04:18:06;;;;;;;78.37;54.53;;;;;;;;;;5045170;28;20520;-44
2022/06/05 04:20:33;;;;;;;87.43;61.67;;;;;;;;;;5050867;28;20764;-43
2022/06/05 04:23:00;;;;;;;87.83;61.00;;;;;;;;;;5050594;28;20175;-42
2022/06/05 04:25:27;;;;;;;84.30;61.40;;;;;;;;;;5044472;28;20202;-43
2022/06/05 04:27:53;;;;;;;84.60;58.43;;;;;;;;;;5048197;28;20174;-44
2022/06/05 04:30:19;;;;;;;78.57;55.97;;;;;;;;;;5044449;28;20180;-44
2022/06/05 04:32:45;;;;;;;81.47;59.17;;;;;;;;;;5042327;28;20240;-44
2022/06/05 04:35:11;;;;;;;73.37;55.00;;;;;;;;;;5048316;28;20186;-44
2022/06/05 04:37:37;;;;;;;90.27;65.90;;;;;;;;;;5046050;28;20700;-44
2022/06/05 04:40:04;;;;;;;90.57;61.67;;;;;;;;;;5043919;28;20602;-44
2022/06/05 04:42:30;;;;;;;94.67;62.50;;;;;;;;;;5048516;28;20210;-44
2022/06/05 04:44:57;;;;;;;87.50;63.50;;;;;;;;;;5047091;28;20184;-43
2022/06/05 04:47:23;;;;;;;87.77;60.63;;;;;;;;;;5042181;28;20245;-44
2022/06/05 04:49:49;;;;;;;76.33;55.27;;;;;;;;;;5046720;28;20175;-44
2022/06/05 04:52:15;;;;;;;91.20;61.87;;;;;;;;;;5047252;28;20167;-43
2022/06/05 04:54:41;;;;;;;77.10;57.30;;;;;;;;;;5042536;28;20548;-42
2022/06/05 04:57:07;;;;;;;77.83;56.20;;;;;;;;;;5046629;28;20183;-43
2022/06/05 04:59:34;;;;;;;78.70;52.93;;;;;;;;;;5047098;28;20489;-44
2022/06/05 05:02:00;;;;;;;89.97;62.03;;;;;;;;;;5043371;28;20199;-44
2022/06/05 05:04:26;;;;;;;77.63;55.47;;;;;;;;;;5048988;28;21008;-43
2022/06/05 05:06:52;;;;;;;75.20;52.93;;;;;;;;;;5044142;28;20694;-44
2022/06/05 05:09:18;;;;;;;70.13;52.50;;;;;;;;;;5041359;28;20217;-44
2022/06/05 05:11:44;;;;;;;82.13;60.97;;;;;;;;;;5044296;28;20737;-44
2022/06/05 05:14:10;;;;;;;82.03;58.87;;;;;;;;;;5043245;28;20194;-44
2022/06/05 05:16:37;;;;;;;71.47;52.50;;;;;;;;;;5045454;28;20240;-43
2022/06/05 05:19:03;;;;;;;82.07;58.67;;;;;;;;;;5044083;28;20564;-44
2022/06/05 05:21:29;;;;;;;89.10;62.07;;;;;;;;;;5049028;28;20352;-44
2022/06/05 05:23:55;;;;;;;81.57;59.40;;;;;;;;;;5046756;28;20175;-43
2022/06/05 05:26:26;;;;;;;89.27;60.80;;;;;;;;;;5045379;28;20516;-44
2022/06/05 05:28:53;;;;;;;75.53;52.47;;;;;;;;;;5043017;28;20330;-44
2022/06/05 05:31:20;;;;;;;81.90;57.60;;;;;;;;;;5043085;28;20343;-44
2022/06/05 05:33:48;;;;;;;79.87;58.70;;;;;;;;;;5043069;28;20314;-44
2022/06/05 05:36:14;;;;;;;82.83;57.47;;;;;;;;;;5046052;28;20179;-42
2022/06/05 05:42:04;;;;;;;68.63;49.73;;;;;;;;;;5041693;28;20319;-44
2022/06/05 05:44:13;;;;;;;85.07;58.87;;;;;;;;;;5045172;28;20770;-44
2022/06/05 05:46:39;;;;;;;82.40;60.77;;;;;;;;;;5042085;28;20280;-44
2022/06/05 05:49:05;;;;;;;98.83;67.97;;;;;;;;;;5046921;28;20802;-44
2022/06/05 05:51:31;;;;;;;90.80;67.67;;;;;;;;;;5044084;28;20276;-43
2022/06/05 05:53:57;;;;;;;109.50;77.97;;;;;;;;;;5047204;28;20285;-44
2022/06/05 05:56:23;;;;;;;99.03;73.77;;;;;;;;;;5048335;28;20193;-44
2022/06/05 05:58:49;;;;;;;112.70;80.97;;;;;;;;;;5045357;28;20894;-44
2022/06/05 06:01:15;;;;;;;97.00;70.53;;;;;;;;;;5049176;28;20203;-44
2022/06/05 06:03:42;;;;;;;102.30;73.23;;;;;;;;;;5047899;28;20187;-43
2022/06/05 06:06:08;;;;;;;89.93;68.13;;;;;;;;;;5039565;28;20171;-43
2022/06/05 06:08:34;;;;;;;97.90;68.13;;;;;;;;;;5046671;28;20179;-44
2022/06/05 06:11:00;;;;;;;90.67;63.97;;;;;;;;;;5043836;28;20502;-44
2022/06/05 06:13:26;;;;;;;94.97;67.30;;;;;;;;;;5046020;28;20187;-43
2022/06/05 06:15:52;;;;;;;103.83;77.60;;;;;;;;;;5044172;28;20265;-44
2022/06/05 06:18:19;;;;;;;96.50;71.23;;;;;;;;;;5044373;28;20604;-44
2022/06/05 06:20:46;;;;;;;101.97;72.70;;;;;;;;;;5041215;28;20789;-44
2022/06/05 06:23:12;;;;;;;81.90;64.27;;;;;;;;;;5041235;28;20178;-44
2022/06/05 06:25:38;;;;;;;93.00;71.03;;;;;;;;;;5049632;28;20501;-44
2022/06/05 06:28:07;;;;;;;94.97;72.37;;;;;;;;;;5046081;28;20483;-44
2022/06/05 06:30:34;;;;;;;97.63;75.80;;;;;;;;;;5045864;28;20747;-44
2022/06/05 06:33:00;;;;;;;112.80;82.77;;;;;;;;;;5050800;28;20625;-44
2022/06/05 06:35:26;;;;;;;109.80;80.53;;;;;;;;;;5051058;28;20332;-44
2022/06/05 06:37:52;;;;;;;99.93;76.63;;;;;;;;;;5046756;28;20180;-44
2022/06/05 06:40:18;;;;;;;104.63;79.97;;;;;;;;;;5050249;28;20571;-44
2022/06/05 06:42:45;;;;;;;105.03;82.20;;;;;;;;;;5049333;28;20294;-44
2022/06/05 06:45:11;;;;;;;110.67;81.03;;;;;;;;;;5047988;28;20175;-44
2022/06/05 06:47:37;;;;;;;109.43;81.30;;;;;;;;;;5050612;28;20201;-44
2022/06/05 06:50:04;;;;;;;119.03;85.13;;;;;;;;;;5047863;28;20754;-44
2022/06/05 06:52:30;;;;;;;111.23;82.93;;;;;;;;;;5046156;28;20722;-44
2022/06/05 06:54:56;;;;;;;105.93;81.57;;;;;;;;;;5048773;28;20332;-44
2022/06/05 06:57:22;;;;;;;110.93;79.87;;;;;;;;;;5051528;28;20183;-44
2022/06/05 06:59:48;;;;;;;99.67;76.03;;;;;;;;;;5052091;28;21148;-44
2022/06/05 07:02:14;;;;;;;97.47;72.57;;;;;;;;;;5049627;28;20554;-45
2022/06/05 07:04:40;;;;;;;90.40;69.73;;;;;;;;;;5050798;28;20552;-45
2022/06/05 07:07:06;;;;;;;91.37;67.53;;;;;;;;;;5046071;28;20178;-45
2022/06/05 07:09:32;;;;;;;75.27;59.37;;;;;;;;;;5052765;28;20529;-45
2022/06/05 07:11:59;;;;;;;80.87;61.37;;;;;;;;;;5048818;28;20183;-45
2022/06/05 07:14:26;;;;;;;72.90;56.43;;;;;;;;;;5046899;28;20892;-45
2022/06/05 07:16:52;;;;;;;67.93;54.70;;;;;;;;;;5047759;28;20232;-45
2022/06/05 07:19:18;;;;;;;78.37;57.40;;;;;;;;;;5048287;28;20226;-43
2022/06/05 07:21:44;;;;;;;66.80;52.13;;;;;;;;;;5046575;28;20598;-44
2022/06/05 07:24:10;;;;;;;63.67;50.67;;;;;;;;;;5047015;28;20182;-44
2022/06/05 07:26:37;;;;;;;64.40;48.40;;;;;;;;;;5053726;28;20695;-44
2022/06/05 07:29:04;;;;;;;61.43;48.37;;;;;;;;;;5046954;28;20877;-44
2022/06/05 07:31:31;;;;;;;58.00;47.03;;;;;;;;;;5045349;28;20178;-44
2022/06/05 07:33:58;;;;;;;62.67;48.37;;;;;;;;;;5050988;28;20228;-44
2022/06/05 07:36:26;;;;;;;52.13;42.67;;;;;;;;;;5051273;28;20581;-44
2022/06/05 07:38:53;;;;;;;55.20;45.13;;;;;;;;;;5038991;28;20449;-44
2022/06/05 07:41:27;;;;;;;53.97;42.77;;;;;;;;;;5043834;28;20309;-44
2022/06/05 07:43:53;;;;;;;54.07;44.70;;;;;;;;;;5047539;28;20183;-44
2022/06/05 07:46:20;;;;;;;56.17;41.30;;;;;;;;;;5043102;28;20167;-44
2022/06/05 07:48:47;;;;;;;52.50;42.40;;;;;;;;;;5044844;28;20184;-44
2022/06/05 07:56:48;;;;;;;50.47;40.27;;;;;;;;;;5049061;28;20202;-43
2022/06/05 07:59:15;;;;;;;49.90;37.53;;;;;;;;;;5048740;28;20890;-44
2022/06/05 08:01:41;;;;;;;46.17;37.97;;;;;;;;;;5051712;28;20379;-44
2022/06/05 08:04:07;;;;;;;49.53;39.53;;;;;;;;;;5041630;28;20193;-42
2022/06/05 08:06:34;;;;;;;47.97;38.53;;;;;;;;;;5045748;28;20186;-43
2022/06/05 08:09:01;;;;;;;49.83;39.53;;;;;;;;;;5049651;28;20172;-44
2022/06/05 08:11:27;;;;;;;47.73;37.80;;;;;;;;;;5051518;28;20183;-43
2022/06/05 08:13:54;;;;;;;46.00;35.83;;;;;;;;;;5047161;28;20271;-46
2022/06/05 08:16:20;;;;;;;43.40;37.67;;;;;;;;;;5049367;28;20652;-44
2022/06/05 08:18:46;;;;;;;43.83;36.90;;;;;;;;;;5051492;28;20317;-45
2022/06/05 08:21:12;;;;;;;40.00;35.60;;;;;;;;;;5050311;28;20209;-44
2022/06/05 08:23:38;;;;;;;46.10;36.43;;;;;;;;;;5054468;28;20283;-45
2022/06/05 08:26:05;;;;;;;42.23;33.27;;;;;;;;;;5054524;28;20174;-44
2022/06/05 08:28:31;;;;;;;46.20;35.60;;;;;;;;;;5051036;28;20249;-45
2022/06/05 08:30:57;;;;;;;44.60;35.10;;;;;;;;;;5050476;28;21970;-45
2022/06/05 08:33:23;;;;;;;40.97;32.53;;;;;;;;;;5052521;28;20265;-43
2022/06/05 08:35:50;;;;;;;38.50;32.27;;;;;;;;;;5054243;28;20167;-42
2022/06/05 08:41:27;;;;;;;40.10;35.53;;;;;;;;;;5055022;28;20261;-44
2022/06/05 08:44:12;;;;;;;38.80;32.97;;;;;;;;;;5049813;28;20219;-45
2022/06/05 08:46:46;;;;;;;37.90;33.23;;;;;;;;;;5050890;28;20718;-46
2022/06/05 08:49:14;;;;;;;36.50;31.17;;;;;;;;;;5054861;28;20179;-44
2022/06/05 08:51:48;;;;;;;39.57;33.20;;;;;;;;;;5048800;28;20278;-44
2022/06/05 08:54:20;;;;;;;42.00;34.13;;;;;;;;;;5045859;28;21234;-44
2022/06/05 08:56:51;;;;;;;37.20;30.43;;;;;;;;;;5054552;28;20186;-44
2022/06/05 08:59:26;;;;;;;34.30;27.93;;;;;;;;;;5058320;28;20313;-44
2022/06/05 09:02:13;;;;;;;32.83;28.97;;;;;;;;;;5063803;28;20207;-45
2022/06/05 09:04:45;;;;;;;38.63;31.13;;;;;;;;;;5077017;27;20178;-44
2022/06/05 09:07:16;;;;;;;36.80;32.73;;;;;;;;;;5061107;28;20240;-44
2022/06/05 09:09:55;;;;;;;36.87;30.07;;;;;;;;;;5057909;28;20651;-44
2022/06/05 09:12:26;;;;;;;36.50;28.70;;;;;;;;;;5060460;27;20193;-44
2022/06/05 09:14:57;;;;;;;35.50;28.00;;;;;;;;;;5049308;28;20203;-45
2022/06/05 09:17:23;;;;;;;37.53;30.00;;;;;;;;;;5050589;28;20265;-44
2022/06/05 09:19:50;;;;;;;33.37;28.37;;;;;;;;;;5048401;28;20191;-44
2022/06/05 09:22:16;;;;;;;40.97;33.23;;;;;;;;;;5053991;28;20191;-44
2022/06/05 09:24:48;;;;;;;35.63;28.73;;;;;;;;;;5047993;28;20186;-43
2022/06/05 09:27:20;;;;;;;38.57;30.87;;;;;;;;;;5049841;28;20499;-45
2022/06/05 09:29:52;;;;;;;37.07;28.70;;;;;;;;;;5051501;28;21030;-42
2022/06/05 09:32:21;;;;;;;31.47;25.00;;;;;;;;;;5053482;28;20179;-43
2022/06/05 09:34:55;;;;;;;29.70;23.20;;;;;;;;;;5051319;28;20183;-43
2022/06/05 09:37:27;;;;;;;32.60;24.50;;;;;;;;;;5048900;28;20250;-42
2022/06/05 09:39:55;;;;;;;29.93;23.77;;;;;;;;;;5046314;28;20186;-43
2022/06/05 09:42:38;;;;;;;31.10;23.53;;;;;;;;;;5051907;28;20340;-43
2022/06/05 09:45:13;;;;;;;29.07;23.90;;;;;;;;;;5052095;28;20172;-43
2022/06/05 09:48:15;;;;;;;32.63;23.63;;;;;;;;;;5048066;28;20513;-43
2022/06/05 09:50:41;;;;;;;33.50;22.83;;;;;;;;;;5017978;28;20901;-44
2022/06/05 09:53:26;;;;;;;33.70;23.17;;;;;;;;;;5044686;28;20192;-43
2022/06/05 09:55:58;;;;;;;26.20;20.80;;;;;;;;;;5051800;28;20664;-44
2022/06/05 09:58:41;;;;;;;26.80;20.87;;;;;;;;;;5054947;28;20262;-43
2022/06/05 10:01:28;;;;;;;30.27;23.00;;;;;;;;;;5059427;28;20206;-44
2022/06/05 10:03:55;;;;;;;28.80;20.60;;;;;;;;;;5057429;28;20178;-44
2022/06/05 10:06:24;;;;;;;27.20;20.60;;;;;;;;;;5055078;28;20222;-44
2022/06/05 10:09:02;;;;;;;29.10;22.63;;;;;;;;;;5054731;28;20686;-44
2022/06/05 10:11:38;;;;;;;29.60;21.63;;;;;;;;;;5055080;28;21114;-45
2022/06/05 10:14:04;;;;;;;32.97;22.37;;;;;;;;;;5060211;28;20191;-45
2022/06/05 10:16:46;;;;;;;29.20;19.10;;;;;;;;;;5052571;28;20179;-45
2022/06/05 10:19:13;;;;;;;27.90;19.47;;;;;;;;;;5055034;28;20178;-44
2022/06/05 10:21:57;;;;;;;22.50;15.97;;;;;;;;;;5053017;28;20683;-44
2022/06/05 10:24:36;;;;;;;27.87;17.87;;;;;;;;;;5052332;28;20800;-45
2022/06/05 10:27:04;;;;;;;23.83;16.17;;;;;;;;;;5057204;28;20178;-45
2022/06/05 10:29:35;;;;;;;30.73;19.23;;;;;;;;;;5049455;28;20186;-44
2022/06/05 10:32:01;;;;;;;24.93;20.00;;;;;;;;;;5040251;28;20209;-45
2022/06/05 10:34:46;;;;;;;25.60;20.10;;;;;;;;;;5049322;28;20610;-44
2022/06/05 10:37:28;;;;;;;26.57;20.97;;;;;;;;;;5056135;28;20179;-44
2022/06/05 10:40:08;;;;;;;30.23;19.50;;;;;;;;;;5053251;28;20286;-44
2022/06/05 10:42:43;;;;;;;27.97;18.33;;;;;;;;;;5044654;28;20925;-44
2022/06/05 10:45:15;;;;;;;27.03;18.67;;;;;;;;;;5053759;28;20205;-44
2022/06/05 10:47:45;;;;;;;29.33;20.90;;;;;;;;;;5053277;28;20178;-44
2022/06/05 10:50:13;;;;;;;24.17;15.83;;;;;;;;;;5053059;28;20175;-44
2022/06/05 10:52:43;;;;;;;24.97;16.03;;;;;;;;;;5055080;28;20251;-44
2022/06/05 10:55:18;;;;;;;21.27;14.63;;;;;;;;;;5048947;28;20345;-45
2022/06/05 10:58:07;;;;;;;21.43;15.90;;;;;;;;;;5051570;28;20557;-44
2022/06/05 11:00:38;;;;;;;24.10;18.20;;;;;;;;;;5024391;28;21061;-45
2022/06/05 11:03:11;;;;;;;23.60;16.47;;;;;;;;;;5050255;28;20251;-44
2022/06/05 11:05:52;;;;;;;24.93;16.67;;;;;;;;;;5043753;28;20295;-45
2022/06/05 11:08:27;;;;;;;21.30;14.63;;;;;;;;;;5046300;28;20216;-44
2022/06/05 11:13:47;;;;;;;25.23;16.43;;;;;;;;;;5046980;28;20635;-45
2022/06/05 11:16:28;;;;;;;23.00;16.27;;;;;;;;;;5042790;28;20958;-44
2022/06/05 11:19:21;;;;;;;18.73;13.93;;;;;;;;;;5048160;28;20446;-45
2022/06/05 11:21:49;;;;;;;25.50;15.07;;;;;;;;;;5046311;28;20719;-44
2022/06/05 11:24:25;;;;;;;18.47;12.60;;;;;;;;;;5047306;28;20626;-45
2022/06/05 11:26:57;;;;;;;21.50;12.50;;;;;;;;;;5056687;28;20192;-45
2022/06/05 11:29:36;;;;;;;20.20;13.00;;;;;;;;;;5048181;28;20170;-45
2022/06/05 11:32:19;;;;;;;16.53;10.73;;;;;;;;;;5052683;28;20280;-45
2022/06/05 11:34:45;;;;;;;21.93;11.70;;;;;;;;;;5049227;28;21128;-44
2022/06/05 11:37:14;;;;;;;17.27;11.50;;;;;;;;;;5048819;28;20851;-45
2022/06/05 11:39:40;;;;;;;18.93;11.17;;;;;;;;;;5052456;28;20182;-45
2022/06/05 11:42:27;;;;;;;18.70;10.80;;;;;;;;;;5054388;28;21007;-44
2022/06/05 11:44:57;;;;;;;20.53;11.10;;;;;;;;;;5045198;28;20175;-45
2022/06/05 11:47:25;;;;;;;17.60;10.10;;;;;;;;;;5051334;28;21108;-44
2022/06/05 11:49:55;;;;;;;19.47;12.00;;;;;;;;;;5042389;28;20268;-43
2022/06/05 11:52:27;;;;;;;20.53;11.93;;;;;;;;;;5047544;28;20175;-43
2022/06/05 11:54:59;;;;;;;18.00;12.17;;;;;;;;;;5054956;28;20206;-44
2022/06/05 11:57:25;;;;;;;18.90;12.63;;;;;;;;;;5045449;28;20263;-44
2022/06/05 11:59:51;;;;;;;19.27;12.57;;;;;;;;;;5045058;28;20183;-44
2022/06/05 12:02:24;;;;;;;16.00;11.73;;;;;;;;;;5041423;28;20616;-44
2022/06/05 12:04:53;;;;;;;18.33;12.30;;;;;;;;;;5041880;28;20245;-45
2022/06/05 12:07:19;;;;;;;17.27;10.80;;;;;;;;;;5037805;28;20517;-45
2022/06/05 12:09:52;;;;;;;18.70;12.47;;;;;;;;;;5042995;28;20350;-44
2022/06/05 12:12:27;;;;;;;24.50;13.97;;;;;;;;;;5047584;28;20320;-45
2022/06/05 12:15:02;;;;;;;17.80;11.43;;;;;;;;;;5047278;28;20375;-44
2022/06/05 12:17:28;;;;;;;19.50;12.90;;;;;;;;;;5048403;28;20706;-45
2022/06/05 12:20:13;;;;;;;22.07;12.77;;;;;;;;;;5043693;28;20389;-44
2022/06/05 12:22:43;;;;;;;19.27;12.90;;;;;;;;;;5042881;28;20508;-44
2022/06/05 12:25:22;;;;;;;20.90;13.67;;;;;;;;;;5050293;28;20172;-44
2022/06/05 12:27:51;;;;;;;19.20;13.37;;;;;;;;;;5042399;28;20435;-44
2022/06/05 12:30:21;;;;;;;17.47;11.63;;;;;;;;;;5052501;27;20566;-44
2022/06/05 12:32:50;;;;;;;21.67;13.37;;;;;;;;;;5050592;28;20694;-44
2022/06/05 12:35:24;;;;;;;18.37;13.00;;;;;;;;;;5041206;28;20616;-45
2022/06/05 12:38:02;;;;;;;17.17;11.27;;;;;;;;;;5044253;28;20178;-45
2022/06/05 12:40:35;;;;;;;24.53;12.43;;;;;;;;;;5042873;28;20718;-45
2022/06/05 12:43:05;;;;;;;18.73;11.07;;;;;;;;;;5041232;28;20211;-44
2022/06/05 12:45:33;;;;;;;19.70;10.57;;;;;;;;;;5046352;28;20714;-45
2022/06/05 12:48:10;;;;;;;19.47;11.20;;;;;;;;;;5045969;28;20259;-45
2022/06/05 12:50:45;;;;;;;21.73;10.47;;;;;;;;;;5040642;28;20883;-45
2022/06/05 12:53:50;;;;;;;18.80;10.00;;;;;;;;;;5043020;28;20696;-45
2022/06/05 12:56:26;;;;;;;16.87;10.53;;;;;;;;;;5032749;28;20304;-45
2022/06/05 12:59:10;;;;;;;17.23;9.87;;;;;;;;;;5033446;28;20188;-45
2022/06/05 13:01:58;;;;;;;19.13;10.37;;;;;;;;;;5038981;28;20254;-45
2022/06/05 13:04:43;;;;;;;17.47;11.17;;;;;;;;;;5045846;28;20175;-44
2022/06/05 13:07:15;;;;;;;20.40;10.03;;;;;;;;;;5047083;28;20174;-45
2022/06/05 13:09:51;;;;;;;15.07;10.00;;;;;;;;;;5049677;28;20979;-43
2022/06/05 13:12:24;;;;;;;15.07;9.07;;;;;;;;;;5046427;28;20182;-45
2022/06/05 13:14:50;;;;;;;15.10;9.73;;;;;;;;;;5044506;28;20196;-45
2022/06/05 13:17:39;;;;;;;16.70;8.90;;;;;;;;;;5043150;28;20180;-44
2022/06/05 13:20:24;;;;;;;18.60;9.70;;;;;;;;;;5041008;28;20189;-44
2022/06/05 13:22:57;;;;;;;16.50;10.10;;;;;;;;;;5044813;28;20196;-45
2022/06/05 13:25:28;;;;;;;15.63;9.33;;;;;;;;;;5036835;28;20236;-44
2022/06/05 13:27:55;;;;;;;17.90;9.60;;;;;;;;;;5042809;28;21056;-45
2022/06/05 13:30:23;;;;;;;16.77;9.73;;;;;;;;;;5042543;28;20280;-44
2022/06/05 13:32:49;;;;;;;18.67;9.57;;;;;;;;;;5044294;28;20244;-43
2022/06/05 13:35:29;;;;;;;15.00;9.60;;;;;;;;;;5039980;28;20177;-42
2022/06/05 13:37:55;;;;;;;21.00;10.67;;;;;;;;;;5039996;28;20883;-43
2022/06/05 13:40:24;;;;;;;19.13;9.47;;;;;;;;;;5041494;28;20494;-43
2022/06/05 13:42:51;;;;;;;16.00;9.73;;;;;;;;;;5044154;28;20208;-42
2022/06/05 13:45:36;;;;;;;19.63;9.53;;;;;;;;;;5043732;28;20736;-42
2022/06/05 13:48:23;;;;;;;20.80;10.17;;;;;;;;;;5040922;28;20192;-43
2022/06/05 13:50:49;;;;;;;16.87;9.63;;;;;;;;;;5047745;28;20198;-44
2022/06/05 13:53:18;;;;;;;20.77;10.40;;;;;;;;;;5038075;28;20180;-44
2022/06/05 13:55:47;;;;;;;19.03;9.77;;;;;;;;;;5041048;28;20676;-44
2022/06/05 13:58:17;;;;;;;18.53;9.57;;;;;;;;;;5048228;28;20864;-44
2022/06/05 14:00:50;;;;;;;22.03;10.93;;;;;;;;;;5046117;28;20231;-44
2022/06/05 14:03:18;;;;;;;23.93;10.83;;;;;;;;;;5055925;28;20274;-44
2022/06/05 14:05:50;;;;;;;19.53;10.17;;;;;;;;;;5044412;28;20180;-44
2022/06/05 14:08:27;;;;;;;19.80;9.90;;;;;;;;;;5047477;28;20177;-44
2022/06/05 14:11:00;;;;;;;16.20;9.57;;;;;;;;;;5049920;28;20173;-43
2022/06/05 14:13:27;;;;;;;21.77;9.23;;;;;;;;;;5047830;28;20183;-44
2022/06/05 14:15:54;;;;;;;18.17;9.23;;;;;;;;;;5040133;28;20299;-44
2022/06/05 14:18:23;;;;;;;18.10;9.70;;;;;;;;;;5037923;28;20179;-42
2022/06/05 14:20:50;;;;;;;19.07;9.40;;;;;;;;;;5046878;28;20996;-43
2022/06/05 14:23:24;;;;;;;19.20;9.43;;;;;;;;;;5038804;28;20203;-43
2022/06/05 14:25:51;;;;;;;19.17;8.17;;;;;;;;;;5043576;28;20863;-43
2022/06/05 14:28:18;;;;;;;17.10;8.10;;;;;;;;;;5037520;28;20223;-43
2022/06/05 14:30:58;;;;;;;24.60;9.37;;;;;;;;;;5048734;28;20180;-43
2022/06/05 14:33:35;;;;;;;23.37;9.17;;;;;;;;;;5049234;28;20175;-43
2022/06/05 14:36:03;;;;;;;19.90;9.33;;;;;;;;;;5046262;28;20181;-44
2022/06/05 14:38:48;;;;;;;17.30;9.73;;;;;;;;;;5047505;28;20248;-44
2022/06/05 14:41:16;;;;;;;21.97;8.73;;;;;;;;;;5041060;28;20365;-44
2022/06/05 14:44:05;;;;;;;15.17;9.40;;;;;;;;;;5042182;28;20168;-44
2022/06/05 14:46:41;;;;;;;18.03;9.30;;;;;;;;;;5041643;28;20194;-44
2022/06/05 14:49:26;;;;;;;21.47;9.77;;;;;;;;;;5050345;28;20199;-44
2022/06/05 14:51:53;;;;;;;22.77;10.00;;;;;;;;;;5050648;28;21140;-43
2022/06/05 14:57:51;;;;;;;14.80;9.47;;;;;;;;;;5055490;28;21043;-44